createdAt,value
2019-01-08T00:00:29.873Z,0.00
2019-01-08T00:01:29.863Z,0.00
2019-01-08T00:02:29.855Z,0.00
2019-01-08T00:03:29.846Z,0.00
2019-01-08T00:04:29.838Z,0.00
2019-01-08T00:05:29.830Z,0.00
2019-01-08T00:06:29.822Z,0.00
2019-01-08T00:07:29.813Z,0.00
2019-01-08T00:08:29.804Z,0.00
2019-01-08T00:09:29.795Z,0.00
2019-01-08T00:10:29.788Z,0.00
2019-01-08T00:11:29.777Z,0.00
2019-01-08T00:12:29.769Z,0.00
2019-01-08T00:13:29.760Z,0.00
2019-01-08T00:14:29.754Z,0.00
2019-01-08T00:15:29.741Z,0.00
2019-01-08T00:16:29.754Z,0.00
2019-01-08T00:17:29.726Z,0.00
2019-01-08T00:18:29.716Z,0.00
2019-01-08T00:19:29.712Z,0.00
2019-01-08T00:20:29.704Z,0.00
2019-01-08T00:21:29.694Z,0.00
2019-01-08T00:22:29.683Z,0.00
2019-01-08T00:23:30.475Z,0.00
2019-01-08T00:24:29.670Z,0.00
2019-01-08T00:25:29.657Z,0.00
2019-01-08T00:26:29.651Z,0.00
2019-01-08T00:27:29.641Z,0.00
2019-01-08T00:28:43.020Z,0.00
2019-01-08T00:30:23.053Z,0.00
2019-01-08T00:31:23.057Z,0.00
2019-01-08T00:33:16.602Z,0.00
2019-01-08T00:34:16.480Z,0.00
2019-01-08T00:36:09.922Z,0.00
2019-01-08T00:37:09.802Z,0.00
2019-01-08T00:39:03.387Z,0.00
2019-01-08T00:40:03.227Z,0.00
2019-01-08T00:41:56.865Z,0.00
2019-01-08T00:42:56.577Z,0.00
2019-01-08T00:44:50.131Z,0.00
2019-01-08T00:45:49.921Z,0.00
2019-01-08T00:47:43.380Z,0.00
2019-01-08T00:48:43.304Z,0.00
2019-01-08T00:50:36.750Z,0.00
2019-01-08T00:51:36.666Z,0.00
2019-01-08T00:53:30.162Z,0.00
2019-01-08T00:54:30.091Z,0.00
2019-01-08T00:56:23.624Z,0.00
2019-01-08T00:57:23.438Z,0.00
2019-01-08T00:59:16.579Z,0.00
2019-01-08T01:00:16.296Z,0.00
2019-01-08T01:02:09.718Z,0.00
2019-01-08T01:03:09.672Z,0.00
2019-01-08T01:05:03.131Z,0.00
2019-01-08T01:06:03.084Z,0.00
2019-01-08T01:07:56.444Z,0.00
2019-01-08T01:08:56.404Z,0.00
2019-01-08T01:10:49.898Z,0.00
2019-01-08T01:11:49.805Z,0.00
2019-01-08T01:13:43.376Z,0.00
2019-01-08T01:14:43.179Z,0.00
2019-01-08T01:16:36.714Z,0.00
2019-01-08T01:17:36.552Z,0.00
2019-01-08T01:19:30.158Z,0.00
2019-01-08T01:20:29.940Z,0.00
2019-01-08T01:22:23.853Z,0.00
2019-01-08T01:23:23.713Z,0.00
2019-01-08T01:25:16.840Z,0.00
2019-01-08T01:26:16.588Z,0.00
2019-01-08T01:28:10.102Z,0.00
2019-01-08T01:29:10.013Z,0.00
2019-01-08T01:31:03.563Z,0.00
2019-01-08T01:32:03.246Z,0.00
2019-01-08T01:33:56.888Z,0.00
2019-01-08T01:34:56.573Z,0.00
2019-01-08T01:36:50.189Z,0.00
2019-01-08T01:37:49.918Z,0.00
2019-01-08T01:39:43.710Z,0.00
2019-01-08T01:40:43.299Z,0.00
2019-01-08T01:42:37.125Z,0.00
2019-01-08T01:43:36.952Z,0.00
2019-01-08T01:45:30.410Z,0.00
2019-01-08T01:46:30.031Z,0.00
2019-01-08T01:48:23.738Z,0.00
2019-01-08T01:49:23.443Z,0.00
2019-01-08T01:51:16.567Z,0.00
2019-01-08T01:52:16.383Z,0.00
2019-01-08T01:54:09.916Z,0.00
2019-01-08T01:55:09.647Z,0.00
2019-01-08T01:57:02.758Z,0.00
2019-01-08T01:58:02.439Z,0.00
2019-01-08T01:59:56.169Z,0.00
2019-01-08T02:00:56.192Z,0.00
2019-01-08T02:02:49.509Z,0.00
2019-01-08T02:03:49.210Z,0.00
2019-01-08T02:05:42.389Z,0.00
2019-01-08T02:06:42.030Z,0.00
2019-01-08T02:08:35.595Z,0.00
2019-01-08T02:09:35.399Z,0.00
2019-01-08T02:11:28.963Z,0.00
2019-01-08T02:12:28.789Z,0.00
2019-01-08T02:14:22.286Z,0.00
2019-01-08T02:15:22.130Z,0.00
2019-01-08T02:17:15.196Z,0.00
2019-01-08T02:18:14.979Z,0.00
2019-01-08T02:20:08.583Z,0.00
2019-01-08T02:21:08.475Z,0.00
2019-01-08T02:23:01.955Z,0.00
2019-01-08T02:24:01.737Z,0.00
2019-01-08T02:25:55.151Z,0.00
2019-01-08T02:26:55.046Z,0.00
2019-01-08T02:28:48.471Z,0.00
2019-01-08T02:29:48.390Z,0.00
2019-01-08T02:31:41.837Z,0.00
2019-01-08T02:32:41.742Z,0.00
2019-01-08T02:33:41.741Z,0.00
2019-01-08T02:34:41.759Z,0.00
2019-01-08T02:35:41.736Z,0.00
2019-01-08T02:36:41.849Z,0.00
2019-01-08T02:37:41.698Z,0.00
2019-01-08T02:38:41.691Z,0.00
2019-01-08T02:39:41.682Z,0.00
2019-01-08T02:40:41.676Z,0.00
2019-01-08T02:41:41.705Z,0.00
2019-01-08T02:42:41.655Z,0.00
2019-01-08T02:43:41.655Z,0.00
2019-01-08T02:44:41.715Z,0.00
2019-01-08T02:45:41.634Z,0.00
2019-01-08T02:46:41.711Z,0.00
2019-01-08T02:47:41.627Z,0.00
2019-01-08T02:48:41.610Z,0.00
2019-01-08T02:49:41.602Z,0.00
2019-01-08T02:50:41.593Z,0.00
2019-01-08T02:51:41.589Z,0.00
2019-01-08T02:52:41.578Z,0.00
2019-01-08T02:53:41.579Z,0.00
2019-01-08T02:54:41.603Z,0.00
2019-01-08T02:55:41.550Z,0.00
2019-01-08T02:56:41.547Z,0.00
2019-01-08T02:57:41.536Z,0.00
2019-01-08T02:58:41.528Z,0.00
2019-01-08T02:59:41.520Z,0.00
2019-01-08T03:00:41.513Z,0.00
2019-01-08T03:01:41.508Z,0.00
2019-01-08T03:02:41.495Z,0.00
2019-01-08T03:03:41.485Z,0.00
2019-01-08T03:04:41.480Z,0.00
2019-01-08T03:05:41.474Z,0.00
2019-01-08T03:06:41.463Z,0.00
2019-01-08T03:07:41.455Z,0.00
2019-01-08T03:08:41.447Z,0.00
2019-01-08T03:09:41.437Z,0.00
2019-01-08T03:10:41.431Z,0.00
2019-01-08T03:11:41.421Z,0.00
2019-01-08T03:12:41.412Z,0.00
2019-01-08T03:13:41.408Z,0.00
2019-01-08T03:14:41.400Z,0.00
2019-01-08T03:15:41.388Z,0.00
2019-01-08T03:16:41.382Z,0.00
2019-01-08T03:17:41.379Z,0.00
2019-01-08T03:18:41.362Z,0.00
2019-01-08T03:19:41.357Z,0.00
2019-01-08T03:20:41.348Z,0.00
2019-01-08T03:21:41.341Z,0.00
2019-01-08T03:22:41.332Z,0.00
2019-01-08T03:23:41.332Z,0.00
2019-01-08T03:24:41.314Z,0.00
2019-01-08T03:25:41.309Z,0.00
2019-01-08T03:26:41.298Z,0.00
2019-01-08T03:27:41.312Z,0.00
2019-01-08T03:28:41.286Z,0.00
2019-01-08T03:29:41.277Z,0.00
2019-01-08T03:30:41.266Z,0.00
2019-01-08T03:31:41.261Z,0.00
2019-01-08T03:32:41.249Z,0.00
2019-01-08T03:33:41.251Z,0.00
2019-01-08T03:34:41.236Z,0.00
2019-01-08T03:35:41.226Z,0.00
2019-01-08T03:36:41.219Z,0.00
2019-01-08T03:37:41.212Z,0.00
2019-01-08T03:38:41.201Z,0.00
2019-01-08T03:39:41.200Z,0.00
2019-01-08T03:40:41.186Z,0.00
2019-01-08T03:41:41.178Z,0.00
2019-01-08T03:42:41.169Z,0.00
2019-01-08T03:43:41.163Z,0.00
2019-01-08T03:44:41.154Z,0.00
2019-01-08T03:45:41.152Z,0.00
2019-01-08T03:46:41.139Z,0.00
2019-01-08T03:47:41.132Z,0.00
2019-01-08T03:48:41.122Z,0.00
2019-01-08T03:49:41.125Z,0.00
2019-01-08T03:50:41.106Z,0.00
2019-01-08T03:51:41.099Z,0.00
2019-01-08T03:52:41.087Z,0.00
2019-01-08T03:53:41.082Z,0.00
2019-01-08T03:54:41.074Z,0.00
2019-01-08T03:55:41.066Z,0.00
2019-01-08T03:56:41.058Z,0.00
2019-01-08T03:57:41.050Z,0.00
2019-01-08T03:58:41.042Z,0.00
2019-01-08T03:59:42.055Z,0.00
2019-01-08T04:00:41.027Z,0.00
2019-01-08T04:01:41.018Z,0.00
2019-01-08T04:02:41.010Z,0.00
2019-01-08T04:03:41.007Z,0.00
2019-01-08T04:04:40.994Z,0.00
2019-01-08T04:05:40.987Z,0.00
2019-01-08T04:06:40.981Z,0.00
2019-01-08T04:07:40.969Z,0.00
2019-01-08T04:08:40.962Z,0.00
2019-01-08T04:09:40.962Z,0.00
2019-01-08T04:10:40.945Z,0.00
2019-01-08T04:11:40.937Z,0.00
2019-01-08T04:12:40.931Z,0.00
2019-01-08T04:13:40.943Z,0.00
2019-01-08T04:14:40.934Z,0.00
2019-01-08T04:15:40.903Z,0.00
2019-01-08T04:16:40.896Z,0.00
2019-01-08T04:17:40.890Z,0.00
2019-01-08T04:18:40.883Z,0.00
2019-01-08T04:19:40.879Z,0.00
2019-01-08T04:20:40.871Z,0.00
2019-01-08T04:21:40.860Z,0.00
2019-01-08T04:22:40.850Z,0.00
2019-01-08T04:23:40.841Z,0.00
2019-01-08T04:24:40.834Z,0.00
2019-01-08T04:25:40.823Z,0.00
2019-01-08T04:26:40.814Z,0.00
2019-01-08T04:27:40.811Z,0.00
2019-01-08T04:28:40.818Z,0.00
2019-01-08T04:29:40.793Z,0.00
2019-01-08T04:30:40.794Z,0.00
2019-01-08T04:31:40.777Z,0.00
2019-01-08T04:32:40.770Z,0.00
2019-01-08T04:33:40.769Z,0.00
2019-01-08T04:34:40.759Z,0.00
2019-01-08T04:35:40.750Z,0.00
2019-01-08T04:36:40.737Z,0.00
2019-01-08T04:37:40.730Z,0.00
2019-01-08T04:38:40.725Z,0.00
2019-01-08T04:39:40.716Z,0.00
2019-01-08T04:40:40.711Z,0.00
2019-01-08T04:41:40.702Z,0.00
2019-01-08T04:42:40.692Z,0.00
2019-01-08T04:43:40.683Z,0.00
2019-01-08T04:44:40.677Z,0.00
2019-01-08T04:45:40.669Z,0.00
2019-01-08T04:46:40.663Z,0.00
2019-01-08T04:47:40.651Z,0.00
2019-01-08T04:48:40.654Z,0.00
2019-01-08T04:49:40.638Z,0.00
2019-01-08T04:50:40.629Z,0.00
2019-01-08T04:51:40.623Z,0.00
2019-01-08T04:52:40.619Z,0.00
2019-01-08T04:53:40.610Z,0.00
2019-01-08T04:54:40.601Z,0.00
2019-01-08T04:55:40.593Z,0.00
2019-01-08T04:56:40.608Z,0.00
2019-01-08T04:57:40.585Z,0.00
2019-01-08T04:58:40.566Z,0.00
2019-01-08T04:59:40.559Z,0.00
2019-01-08T05:00:40.550Z,0.00
2019-01-08T05:01:40.543Z,0.00
2019-01-08T05:02:40.547Z,0.00
2019-01-08T05:03:40.527Z,0.00
2019-01-08T05:04:40.520Z,0.00
2019-01-08T05:05:40.517Z,0.00
2019-01-08T05:06:40.509Z,0.00
2019-01-08T05:07:40.499Z,0.00
2019-01-08T05:08:40.497Z,0.00
2019-01-08T05:09:40.486Z,0.00
2019-01-08T05:10:40.477Z,0.00
2019-01-08T05:11:40.475Z,0.00
2019-01-08T05:12:40.459Z,0.00
2019-01-08T05:13:40.472Z,0.00
2019-01-08T05:14:40.443Z,0.00
2019-01-08T05:15:40.436Z,0.00
2019-01-08T05:16:40.433Z,0.00
2019-01-08T05:17:40.422Z,0.00
2019-01-08T05:18:40.415Z,0.00
2019-01-08T05:19:40.405Z,0.00
2019-01-08T05:20:40.399Z,0.00
2019-01-08T05:21:40.390Z,0.00
2019-01-08T05:22:40.380Z,0.00
2019-01-08T05:23:40.389Z,0.00
2019-01-08T05:24:40.367Z,0.00
2019-01-08T05:25:40.455Z,0.00
2019-01-08T05:27:09.551Z,0.00
2019-01-08T05:28:09.485Z,0.00
2019-01-08T05:30:07.997Z,0.00
2019-01-08T05:31:02.811Z,0.00
2019-01-08T05:32:55.672Z,0.00
2019-01-08T05:33:55.655Z,0.00
2019-01-08T05:35:49.075Z,0.00
2019-01-08T05:36:48.996Z,0.00
2019-01-08T05:38:42.353Z,0.00
2019-01-08T05:39:42.303Z,0.00
2019-01-08T05:40:42.323Z,0.00
2019-01-08T05:41:42.303Z,0.00
2019-01-08T05:42:42.374Z,0.00
2019-01-08T05:43:42.269Z,0.00
2019-01-08T05:44:42.262Z,0.00
2019-01-08T05:45:42.255Z,0.00
2019-01-08T05:46:42.256Z,0.00
2019-01-08T05:47:42.242Z,0.00
2019-01-08T05:48:42.244Z,0.00
2019-01-08T05:49:42.227Z,0.00
2019-01-08T05:50:42.216Z,0.00
2019-01-08T05:51:42.217Z,0.00
2019-01-08T05:52:42.202Z,0.00
2019-01-08T05:53:42.209Z,0.00
2019-01-08T05:54:42.189Z,0.00
2019-01-08T05:55:42.179Z,0.00
2019-01-08T05:56:42.172Z,0.00
2019-01-08T05:57:42.168Z,0.00
2019-01-08T05:58:42.165Z,0.00
2019-01-08T05:59:42.154Z,0.00
2019-01-08T06:00:42.145Z,0.00
2019-01-08T06:01:42.227Z,0.00
2019-01-08T06:02:42.130Z,0.00
2019-01-08T06:03:42.156Z,0.00
2019-01-08T06:04:42.114Z,0.00
2019-01-08T06:05:42.109Z,0.00
2019-01-08T06:06:42.106Z,0.00
2019-01-08T06:07:42.091Z,0.00
2019-01-08T06:08:42.084Z,0.00
2019-01-08T06:09:42.101Z,0.00
2019-01-08T06:10:42.069Z,0.00
2019-01-08T06:11:42.063Z,0.00
2019-01-08T06:12:42.058Z,0.00
2019-01-08T06:13:42.065Z,0.00
2019-01-08T06:14:42.037Z,0.00
2019-01-08T06:15:42.038Z,0.00
2019-01-08T06:16:42.048Z,0.00
2019-01-08T06:17:42.023Z,0.00
2019-01-08T06:18:42.011Z,0.00
2019-01-08T06:19:42.000Z,0.00
2019-01-08T06:20:41.999Z,0.00
2019-01-08T06:21:41.989Z,0.00
2019-01-08T06:22:42.006Z,0.00
2019-01-08T06:23:41.974Z,0.00
2019-01-08T06:24:41.968Z,0.00
2019-01-08T06:25:41.958Z,0.00
2019-01-08T06:26:41.966Z,0.00
2019-01-08T06:27:41.946Z,0.00
2019-01-08T06:28:41.952Z,0.00
2019-01-08T06:29:41.935Z,0.00
2019-01-08T06:30:41.921Z,0.00
2019-01-08T06:31:41.924Z,0.00
2019-01-08T06:32:41.907Z,0.00
2019-01-08T06:33:41.902Z,0.00
2019-01-08T06:34:41.892Z,0.00
2019-01-08T06:35:41.886Z,0.00
2019-01-08T06:36:41.879Z,0.00
2019-01-08T06:37:41.871Z,0.00
2019-01-08T06:38:41.862Z,0.00
2019-01-08T06:39:41.853Z,0.00
2019-01-08T06:40:41.847Z,0.00
2019-01-08T06:41:41.866Z,0.00
2019-01-08T06:42:41.894Z,0.00
2019-01-08T06:43:41.825Z,0.00
2019-01-08T06:44:41.818Z,0.00
2019-01-08T06:45:41.809Z,0.00
2019-01-08T06:46:43.125Z,0.00
2019-01-08T06:47:41.795Z,0.00
2019-01-08T06:48:41.785Z,0.00
2019-01-08T06:49:41.776Z,0.00
2019-01-08T06:50:41.768Z,0.00
2019-01-08T06:51:41.768Z,0.00
2019-01-08T06:52:41.756Z,0.00
2019-01-08T06:53:41.747Z,0.00
2019-01-08T06:54:41.739Z,0.00
2019-01-08T06:55:41.733Z,0.00
2019-01-08T06:56:41.728Z,0.00
2019-01-08T06:57:41.719Z,0.00
2019-01-08T06:58:41.713Z,0.00
2019-01-08T06:59:41.701Z,0.00
2019-01-08T07:00:41.691Z,0.00
2019-01-08T07:01:41.687Z,0.00
2019-01-08T07:02:41.683Z,0.00
2019-01-08T07:03:41.671Z,0.00
2019-01-08T07:04:41.689Z,0.00
2019-01-08T07:05:41.657Z,0.00
2019-01-08T07:06:41.649Z,0.00
2019-01-08T07:07:41.639Z,0.00
2019-01-08T07:08:41.633Z,0.00
2019-01-08T07:09:41.628Z,0.00
2019-01-08T07:10:41.615Z,0.00
2019-01-08T07:11:41.614Z,0.00
2019-01-08T07:12:41.607Z,0.00
2019-01-08T07:13:41.594Z,0.00
2019-01-08T07:14:41.588Z,0.00
2019-01-08T07:15:41.591Z,0.00
2019-01-08T07:16:41.573Z,0.00
2019-01-08T07:17:41.565Z,0.00
2019-01-08T07:18:41.555Z,0.00
2019-01-08T07:19:41.548Z,0.00
2019-01-08T07:20:41.548Z,0.00
2019-01-08T07:21:41.534Z,0.00
2019-01-08T07:22:41.527Z,0.00
2019-01-08T07:23:41.519Z,0.00
2019-01-08T07:24:41.514Z,0.00
2019-01-08T07:25:42.230Z,0.00
2019-01-08T07:26:41.499Z,0.00
2019-01-08T07:27:41.488Z,0.00
2019-01-08T07:28:41.479Z,0.00
2019-01-08T07:29:41.475Z,0.00
2019-01-08T07:30:41.935Z,0.00
2019-01-08T07:31:41.459Z,0.00
2019-01-08T07:32:41.450Z,0.00
2019-01-08T07:33:41.444Z,0.00
2019-01-08T07:34:41.435Z,0.00
2019-01-08T07:35:41.428Z,0.00
2019-01-08T07:36:41.419Z,0.00
2019-01-08T07:37:41.416Z,0.00
2019-01-08T07:38:41.404Z,0.00
2019-01-08T07:39:41.398Z,0.00
2019-01-08T07:40:41.524Z,0.00
2019-01-08T07:41:41.381Z,0.00
2019-01-08T07:42:41.397Z,0.00
2019-01-08T07:43:41.446Z,0.00
2019-01-08T07:44:41.377Z,0.00
2019-01-08T07:45:41.352Z,0.00
2019-01-08T07:46:41.344Z,0.00
2019-01-08T07:47:41.339Z,0.00
2019-01-08T07:48:41.329Z,0.00
2019-01-08T07:49:41.320Z,0.00
2019-01-08T07:50:41.314Z,0.00
2019-01-08T07:51:41.310Z,0.00
2019-01-08T07:52:41.298Z,0.00
2019-01-08T07:53:41.290Z,0.00
2019-01-08T07:54:41.285Z,0.00
2019-01-08T07:55:41.279Z,0.00
2019-01-08T07:56:41.268Z,0.00
2019-01-08T07:57:41.261Z,0.00
2019-01-08T07:58:41.253Z,0.00
2019-01-08T07:59:41.245Z,0.00
2019-01-08T08:00:49.756Z,0.00
2019-01-08T08:01:41.234Z,0.00
2019-01-08T08:02:41.221Z,5.63
2019-01-08T08:03:41.214Z,5.63
2019-01-08T08:04:47.542Z,5.63
2019-01-08T08:05:41.208Z,5.63
2019-01-08T08:06:41.193Z,5.63
2019-01-08T08:07:41.184Z,5.63
2019-01-08T08:08:41.178Z,5.63
2019-01-08T08:09:41.187Z,5.63
2019-01-08T08:10:41.159Z,5.63
2019-01-08T08:11:41.153Z,5.63
2019-01-08T08:12:41.147Z,5.63
2019-01-08T08:13:41.137Z,5.63
2019-01-08T08:14:41.125Z,0.00
2019-01-08T08:15:41.123Z,5.63
2019-01-08T08:16:41.113Z,5.63
2019-01-08T08:17:41.112Z,5.63
2019-01-08T08:18:41.106Z,5.63
2019-01-08T08:19:41.088Z,5.63
2019-01-08T08:20:41.082Z,5.63
2019-01-08T08:21:41.071Z,0.00
2019-01-08T08:22:41.067Z,5.63
2019-01-08T08:23:41.108Z,5.63
2019-01-08T08:24:41.049Z,5.63
2019-01-08T08:25:41.044Z,5.63
2019-01-08T08:26:41.054Z,5.63
2019-01-08T08:27:41.029Z,5.63
2019-01-08T08:28:41.021Z,5.63
2019-01-08T08:29:41.012Z,11.25
2019-01-08T08:30:41.004Z,11.25
2019-01-08T08:31:40.995Z,5.63
2019-01-08T08:32:41.002Z,5.63
2019-01-08T08:33:40.981Z,5.63
2019-01-08T08:34:40.972Z,5.63
2019-01-08T08:35:40.965Z,5.63
2019-01-08T08:36:40.958Z,5.63
2019-01-08T08:37:40.952Z,5.63
2019-01-08T08:38:40.938Z,11.25
2019-01-08T08:39:40.948Z,11.25
2019-01-08T08:40:40.929Z,11.25
2019-01-08T08:41:40.918Z,5.63
2019-01-08T08:42:40.910Z,5.63
2019-01-08T08:43:40.904Z,5.63
2019-01-08T08:44:40.895Z,11.25
2019-01-08T08:45:40.886Z,16.88
2019-01-08T08:46:40.878Z,22.50
2019-01-08T08:47:40.873Z,28.13
2019-01-08T08:48:40.864Z,22.50
2019-01-08T08:49:40.857Z,22.50
2019-01-08T08:50:40.852Z,22.50
2019-01-08T08:51:40.852Z,16.88
2019-01-08T08:52:40.834Z,11.25
2019-01-08T08:53:40.827Z,16.88
2019-01-08T08:54:40.817Z,28.13
2019-01-08T08:55:40.809Z,28.13
2019-01-08T08:56:40.802Z,22.50
2019-01-08T08:57:40.871Z,16.88
2019-01-08T08:58:40.789Z,16.88
2019-01-08T08:59:40.783Z,16.88
2019-01-08T09:00:40.773Z,16.88
2019-01-08T09:01:40.775Z,16.88
2019-01-08T09:02:40.758Z,16.88
2019-01-08T09:03:40.755Z,22.50
2019-01-08T09:04:40.744Z,22.50
2019-01-08T09:05:40.736Z,16.88
2019-01-08T09:06:40.724Z,16.88
2019-01-08T09:07:40.724Z,16.88
2019-01-08T09:08:40.715Z,16.88
2019-01-08T09:09:40.703Z,16.88
2019-01-08T09:10:40.695Z,22.50
2019-01-08T09:11:40.688Z,28.13
2019-01-08T09:12:40.682Z,33.75
2019-01-08T09:13:40.675Z,28.13
2019-01-08T09:14:40.667Z,28.13
2019-01-08T09:15:40.658Z,39.38
2019-01-08T09:16:40.651Z,45.00
2019-01-08T09:17:40.643Z,39.38
2019-01-08T09:18:40.636Z,33.75
2019-01-08T09:19:40.627Z,28.13
2019-01-08T09:20:40.618Z,16.88
2019-01-08T09:21:40.610Z,16.88
2019-01-08T09:22:40.606Z,16.88
2019-01-08T09:23:40.600Z,16.88
2019-01-08T09:24:40.588Z,16.88
2019-01-08T09:25:40.585Z,16.88
2019-01-08T09:26:40.577Z,16.88
2019-01-08T09:27:40.567Z,28.13
2019-01-08T09:28:40.559Z,28.13
2019-01-08T09:29:40.555Z,28.13
2019-01-08T09:30:40.545Z,22.50
2019-01-08T09:31:40.539Z,28.13
2019-01-08T09:32:40.532Z,33.75
2019-01-08T09:33:40.524Z,28.13
2019-01-08T09:34:40.517Z,28.13
2019-01-08T09:35:40.509Z,28.13
2019-01-08T09:36:40.506Z,22.50
2019-01-08T09:37:40.496Z,16.88
2019-01-08T09:38:40.487Z,16.88
2019-01-08T09:39:40.481Z,33.75
2019-01-08T09:40:40.474Z,28.13
2019-01-08T09:41:40.471Z,16.88
2019-01-08T09:42:40.458Z,16.88
2019-01-08T09:43:40.459Z,22.50
2019-01-08T09:44:40.441Z,16.88
2019-01-08T09:45:40.437Z,16.88
2019-01-08T09:46:40.429Z,16.88
2019-01-08T09:47:40.422Z,16.88
2019-01-08T09:48:40.419Z,16.88
2019-01-08T09:49:40.406Z,16.88
2019-01-08T09:50:40.399Z,16.88
2019-01-08T09:51:40.390Z,11.25
2019-01-08T09:52:40.384Z,11.25
2019-01-08T09:53:40.379Z,16.88
2019-01-08T09:54:40.367Z,16.88
2019-01-08T09:55:40.367Z,16.88
2019-01-08T09:56:40.359Z,16.88
2019-01-08T09:57:40.349Z,16.88
2019-01-08T09:58:40.341Z,11.25
2019-01-08T09:59:40.334Z,11.25
2019-01-08T10:00:40.335Z,11.25
2019-01-08T10:01:40.320Z,16.88
2019-01-08T10:02:40.313Z,16.88
2019-01-08T10:03:40.305Z,22.50
2019-01-08T10:04:40.294Z,22.50
2019-01-08T10:05:40.291Z,22.50
2019-01-08T10:06:40.289Z,33.75
2019-01-08T10:07:40.274Z,45.00
2019-01-08T10:08:40.269Z,28.13
2019-01-08T10:09:40.263Z,22.50
2019-01-08T10:10:40.253Z,22.50
2019-01-08T10:11:40.248Z,16.88
2019-01-08T10:12:40.238Z,16.88
2019-01-08T10:13:40.232Z,11.25
2019-01-08T10:14:40.299Z,16.88
2019-01-08T10:15:40.219Z,28.13
2019-01-08T10:16:40.211Z,28.13
2019-01-08T10:17:40.209Z,39.38
2019-01-08T10:18:40.198Z,33.75
2019-01-08T10:19:40.191Z,39.38
2019-01-08T10:20:40.187Z,50.63
2019-01-08T10:21:40.179Z,45.00
2019-01-08T10:22:40.164Z,39.38
2019-01-08T10:23:40.158Z,33.75
2019-01-08T10:24:40.152Z,33.75
2019-01-08T10:25:40.147Z,28.13
2019-01-08T10:26:40.139Z,22.50
2019-01-08T10:27:40.131Z,16.88
2019-01-08T10:28:40.135Z,16.88
2019-01-08T10:29:40.118Z,22.50
2019-01-08T10:30:40.120Z,22.50
2019-01-08T10:31:40.101Z,22.50
2019-01-08T10:32:40.094Z,28.13
2019-01-08T10:33:40.097Z,33.75
2019-01-08T10:34:40.077Z,28.13
2019-01-08T10:35:40.073Z,28.13
2019-01-08T10:36:40.065Z,45.00
2019-01-08T10:37:40.057Z,45.00
2019-01-08T10:38:40.050Z,33.75
2019-01-08T10:39:40.045Z,28.13
2019-01-08T10:40:40.034Z,22.50
2019-01-08T10:41:40.031Z,28.13
2019-01-08T10:42:40.021Z,33.75
2019-01-08T10:43:40.014Z,33.75
2019-01-08T10:44:40.009Z,50.63
2019-01-08T10:45:40.009Z,50.63
2019-01-08T10:46:39.999Z,56.25
2019-01-08T10:47:39.985Z,61.88
2019-01-08T10:48:39.978Z,45.00
2019-01-08T10:49:39.971Z,45.00
2019-01-08T10:50:39.960Z,39.38
2019-01-08T10:51:39.956Z,50.63
2019-01-08T10:52:39.950Z,61.88
2019-01-08T10:53:39.942Z,45.00
2019-01-08T10:54:39.934Z,39.38
2019-01-08T10:55:39.934Z,45.00
2019-01-08T10:56:39.922Z,61.88
2019-01-08T10:57:39.913Z,50.63
2019-01-08T10:58:39.908Z,50.63
2019-01-08T10:59:39.901Z,56.25
2019-01-08T11:00:39.889Z,56.25
2019-01-08T11:01:40.706Z,50.63
2019-01-08T11:02:39.882Z,45.00
2019-01-08T11:03:39.869Z,33.75
2019-01-08T11:04:39.864Z,33.75
2019-01-08T11:05:39.857Z,50.63
2019-01-08T11:06:39.848Z,50.63
2019-01-08T11:07:39.846Z,50.63
2019-01-08T11:08:39.839Z,67.50
2019-01-08T11:09:39.827Z,84.38
2019-01-08T11:10:39.819Z,78.75
2019-01-08T11:11:39.827Z,61.88
2019-01-08T11:12:39.809Z,39.38
2019-01-08T11:13:39.800Z,39.38
2019-01-08T11:14:39.794Z,39.38
2019-01-08T11:15:39.787Z,33.75
2019-01-08T11:16:39.780Z,45.00
2019-01-08T11:17:39.795Z,39.38
2019-01-08T11:18:39.769Z,39.38
2019-01-08T11:19:39.759Z,33.75
2019-01-08T11:20:39.751Z,45.00
2019-01-08T11:21:39.747Z,39.38
2019-01-08T11:22:39.739Z,28.13
2019-01-08T11:23:39.740Z,28.13
2019-01-08T11:24:39.724Z,33.75
2019-01-08T11:25:39.719Z,56.25
2019-01-08T11:26:39.711Z,67.50
2019-01-08T11:27:39.703Z,61.88
2019-01-08T11:28:39.696Z,45.00
2019-01-08T11:29:39.692Z,50.63
2019-01-08T11:30:39.683Z,50.63
2019-01-08T11:31:39.674Z,50.63
2019-01-08T11:32:39.668Z,45.00
2019-01-08T11:33:39.660Z,45.00
2019-01-08T11:34:39.956Z,50.63
2019-01-08T11:35:42.263Z,61.88
2019-01-08T11:36:39.641Z,73.13
2019-01-08T11:37:39.635Z,84.38
2019-01-08T11:38:39.626Z,95.63
2019-01-08T11:39:39.617Z,101.25
2019-01-08T11:40:39.616Z,118.13
2019-01-08T11:41:39.606Z,112.50
2019-01-08T11:42:39.599Z,84.38
2019-01-08T11:43:39.592Z,78.75
2019-01-08T11:44:39.584Z,61.88
2019-01-08T11:45:39.584Z,45.00
2019-01-08T11:46:39.572Z,39.38
2019-01-08T11:47:39.565Z,39.38
2019-01-08T11:48:39.557Z,39.38
2019-01-08T11:49:39.554Z,39.38
2019-01-08T11:50:39.544Z,50.63
2019-01-08T11:51:39.537Z,50.63
2019-01-08T11:52:39.534Z,67.50
2019-01-08T11:53:39.526Z,78.75
2019-01-08T11:54:41.185Z,90.00
2019-01-08T11:55:39.513Z,106.88
2019-01-08T11:56:39.511Z,112.50
2019-01-08T11:57:39.509Z,112.50
2019-01-08T11:58:39.592Z,123.75
2019-01-08T11:59:39.483Z,112.50
2019-01-08T12:00:39.478Z,140.63
2019-01-08T12:01:39.511Z,118.13
2019-01-08T12:02:47.573Z,90.00
2019-01-08T12:03:39.458Z,84.38
2019-01-08T12:04:39.452Z,84.38
2019-01-08T12:05:39.445Z,67.50
2019-01-08T12:06:39.439Z,56.25
2019-01-08T12:07:39.428Z,61.88
2019-01-08T12:08:39.424Z,78.75
2019-01-08T12:09:40.636Z,90.00
2019-01-08T12:10:39.412Z,84.38
2019-01-08T12:11:39.416Z,90.00
2019-01-08T12:12:40.931Z,106.88
2019-01-08T12:13:39.399Z,129.38
2019-01-08T12:14:39.384Z,123.75
2019-01-08T12:15:39.380Z,118.13
2019-01-08T12:16:39.368Z,118.13
2019-01-08T12:17:39.367Z,123.75
2019-01-08T12:18:39.384Z,123.75
2019-01-08T12:19:39.349Z,123.75
2019-01-08T12:20:39.341Z,129.38
2019-01-08T12:21:39.337Z,135.00
2019-01-08T12:22:41.033Z,123.75
2019-01-08T12:23:40.928Z,106.88
2019-01-08T12:24:39.317Z,101.25
2019-01-08T12:25:39.330Z,95.63
2019-01-08T12:26:40.926Z,112.50
2019-01-08T12:27:39.301Z,112.50
2019-01-08T12:28:39.290Z,106.88
2019-01-08T12:29:39.288Z,95.63
2019-01-08T12:30:39.276Z,95.63
2019-01-08T12:31:39.294Z,90.00
2019-01-08T12:32:39.267Z,90.00
2019-01-08T12:33:39.291Z,90.00
2019-01-08T12:34:39.254Z,90.00
2019-01-08T12:35:39.245Z,95.63
2019-01-08T12:36:46.587Z,118.13
2019-01-08T12:38:32.693Z,106.88
2019-01-08T12:39:32.627Z,84.38
2019-01-08T12:41:26.287Z,50.63
2019-01-08T12:42:26.043Z,33.75
2019-01-08T12:44:19.410Z,28.13
2019-01-08T12:45:19.345Z,33.75
2019-01-08T12:47:12.837Z,39.38
2019-01-08T12:48:12.696Z,39.38
2019-01-08T12:50:06.455Z,33.75
2019-01-08T12:51:06.098Z,33.75
2019-01-08T12:52:59.697Z,28.13
2019-01-08T12:53:59.448Z,33.75
2019-01-08T12:55:52.825Z,33.75
2019-01-08T12:56:52.787Z,28.13
2019-01-08T12:58:46.372Z,22.50
2019-01-08T12:59:46.205Z,22.50
2019-01-08T13:01:39.211Z,22.50
2019-01-08T13:02:38.994Z,22.50
2019-01-08T13:04:32.618Z,28.13
2019-01-08T13:05:32.404Z,28.13
2019-01-08T13:07:25.999Z,39.38
2019-01-08T13:08:25.679Z,28.13
2019-01-08T13:10:18.945Z,33.75
2019-01-08T13:11:18.604Z,28.13
2019-01-08T13:13:12.237Z,28.13
2019-01-08T13:14:11.887Z,33.75
2019-01-08T13:16:05.452Z,33.75
2019-01-08T13:17:11.370Z,33.75
2019-01-08T13:18:58.401Z,33.75
2019-01-08T13:19:58.118Z,33.75
2019-01-08T13:20:58.083Z,33.75
2019-01-08T13:21:58.179Z,33.75
2019-01-08T13:22:58.041Z,28.13
2019-01-08T13:23:58.033Z,22.50
2019-01-08T13:24:58.021Z,22.50
2019-01-08T13:25:58.017Z,28.13
2019-01-08T13:26:58.019Z,28.13
2019-01-08T13:27:57.997Z,28.13
2019-01-08T13:28:57.992Z,33.75
2019-01-08T13:29:59.094Z,33.75
2019-01-08T13:30:57.979Z,33.75
2019-01-08T13:31:57.983Z,28.13
2019-01-08T13:32:57.966Z,22.50
2019-01-08T13:33:59.741Z,22.50
2019-01-08T13:34:57.956Z,28.13
2019-01-08T13:35:57.952Z,28.13
2019-01-08T13:36:57.933Z,28.13
2019-01-08T13:37:57.931Z,22.50
2019-01-08T13:38:57.924Z,22.50
2019-01-08T13:39:57.914Z,16.88
2019-01-08T13:40:57.914Z,16.88
2019-01-08T13:41:57.901Z,16.88
2019-01-08T13:42:57.896Z,22.50
2019-01-08T13:43:57.904Z,22.50
2019-01-08T13:44:57.879Z,28.13
2019-01-08T13:45:57.906Z,28.13
2019-01-08T13:46:57.886Z,33.75
2019-01-08T13:47:57.862Z,28.13
2019-01-08T13:48:57.851Z,22.50
2019-01-08T13:49:57.844Z,22.50
2019-01-08T13:50:57.846Z,22.50
2019-01-08T13:51:57.835Z,22.50
2019-01-08T13:52:57.844Z,22.50
2019-01-08T13:53:57.817Z,22.50
2019-01-08T13:54:57.812Z,28.13
2019-01-08T13:55:57.806Z,28.13
2019-01-08T13:56:59.620Z,22.50
2019-01-08T13:57:57.807Z,22.50
2019-01-08T13:58:57.803Z,16.88
2019-01-08T13:59:57.780Z,16.88
2019-01-08T14:00:57.783Z,16.88
2019-01-08T14:01:57.764Z,11.25
2019-01-08T14:02:57.758Z,11.25